PWSweather.com
Personal Weather Stations
Station Observations
BLACKWELL
Blackwell, AlfretonGB DE55

BlackwellAlfretonGB DE55

Lat: 53.12076, Lon: -1.354978

Elevation: 410

Station Type: Vantage Pro

High Low Average
Temperature 51.3°F10.7°C 40.3°F4.6°C 47.0°F8.3°C
Dew Point 50.5°F10.3°C 38.1°F3.4°C 45.6°F7.6°C
Winds 3.0 mph 4.8 kmh Calm Calm Calm SCalm S
Wind Gusts 8.0 mph12.9 kmh 1.0 mph1.6 kmh 3.0 mph4.8 kmh
Humidity 97% 91% 95%
Pressure 29.73 in1006.8 mb 29.34 in993.6 mb -
Precipitation 0.08 in2.0 mm - -
Hour Temp Dew Point Humidity Winds Wind Gusts Pressure Precip Precip Rate Daily Precip Total
12:48 AM 40.3°F4.6°C 38.1°F3.4°C 92% Calm Calm 1.0 mph1.6 kmh 29.73 in1006.8 mb 0.00 in0.0 mm 0.00 in0.0 mm 0.00 in0.0 mm
01:48 AM 41.2°F5.1°C 39.2°F4.0°C 93% Calm Calm 1.0 mph1.6 kmh 29.73 in1006.8 mb 0.00 in0.0 mm 0.00 in0.0 mm 0.00 in0.0 mm
02:48 AM 42.1°F5.6°C 40.5°F4.7°C 94% Calm Calm 3.0 mph4.8 kmh 29.72 in1006.4 mb 0.00 in0.0 mm 0.00 in0.0 mm 0.00 in0.0 mm
03:48 AM 43.2°F6.2°C 41.7°F5.4°C 95% Calm Calm 2.0 mph3.2 kmh 29.70 in1005.8 mb 0.00 in0.0 mm 0.00 in0.0 mm 0.00 in0.0 mm
04:48 AM 43.5°F6.4°C 42.1°F5.6°C 95% Calm Calm 2.0 mph3.2 kmh 29.69 in1005.4 mb 0.00 in0.0 mm 0.00 in0.0 mm 0.00 in0.0 mm
05:48 AM 43.5°F6.4°C 42.1°F5.6°C 95% Calm Calm 4.0 mph6.4 kmh 29.66 in1004.4 mb 0.01 in0.3 mm 0.00 in0.0 mm 0.01 in0.3 mm
06:48 AM 43.3°F6.3°C 42.3°F5.7°C 96% Calm Calm 8.0 mph12.9 kmh 29.64 in1003.7 mb 0.00 in0.0 mm 0.00 in0.0 mm 0.01 in0.3 mm
07:48 AM 43.0°F6.1°C 41.5°F5.3°C 95% Calm Calm 1.0 mph1.6 kmh 29.61 in1002.7 mb 0.00 in0.0 mm 0.00 in0.0 mm 0.01 in0.3 mm
08:48 AM 43.5°F6.4°C 42.6°F5.9°C 96% Calm Calm 1.0 mph1.6 kmh 29.59 in1002.0 mb 0.00 in0.0 mm 0.00 in0.0 mm 0.01 in0.3 mm
09:48 AM 45.3°F7.4°C 44.2°F6.8°C 96% Calm Calm 2.0 mph3.2 kmh 29.54 in1000.3 mb 0.00 in0.0 mm 0.00 in0.0 mm 0.01 in0.3 mm
10:48 AM 46.4°F8.0°C 45.7°F7.6°C 97% Calm Calm 4.0 mph6.4 kmh 29.51 in999.3 mb 0.02 in0.5 mm 0.00 in0.0 mm 0.02 in0.5 mm
11:49 AM 47.5°F8.6°C 46.8°F8.2°C 97% Calm Calm 3.0 mph4.8 kmh 29.46 in997.6 mb 0.01 in0.3 mm 0.60 in15.2 mm 0.03 in0.8 mm
12:48 PM 48.7°F9.3°C 48.0°F8.9°C 97% 1.0 mph S1.6 kmh S 6.0 mph9.7 kmh 29.43 in996.6 mb 0.01 in0.3 mm 0.00 in0.0 mm 0.05 in1.3 mm
01:48 PM 49.8°F9.9°C 49.1°F9.5°C 97% 1.0 mph S1.6 kmh S 5.0 mph8.0 kmh 29.41 in995.9 mb 0.00 in0.0 mm 0.00 in0.0 mm 0.05 in1.3 mm
02:48 PM 50.7°F10.4°C 50.0°F10.0°C 97% Calm Calm 4.0 mph6.4 kmh 29.39 in995.3 mb 0.01 in0.3 mm 0.00 in0.0 mm 0.06 in1.5 mm
03:48 PM 51.3°F10.7°C 50.5°F10.3°C 97% Calm Calm 2.0 mph3.2 kmh 29.41 in995.9 mb 0.00 in0.0 mm 0.00 in0.0 mm 0.06 in1.5 mm
04:48 PM 51.1°F10.6°C 50.2°F10.1°C 97% Calm Calm 2.0 mph3.2 kmh 29.40 in995.6 mb 0.00 in0.0 mm 0.00 in0.0 mm 0.06 in1.5 mm
05:48 PM 51.1°F10.6°C 49.5°F9.7°C 94% 1.0 mph WSW1.6 kmh WSW 5.0 mph8.0 kmh 29.40 in995.6 mb 0.00 in0.0 mm 0.00 in0.0 mm 0.06 in1.5 mm
06:48 PM 50.7°F10.4°C 48.9°F9.4°C 93% 2.0 mph SW3.2 kmh SW 5.0 mph8.0 kmh 29.40 in995.6 mb 0.00 in0.0 mm 0.00 in0.0 mm 0.06 in1.5 mm
07:48 PM 50.4°F10.2°C 48.4°F9.1°C 93% Calm Calm 5.0 mph8.0 kmh 29.38 in994.9 mb 0.00 in0.0 mm 0.00 in0.0 mm 0.06 in1.5 mm
08:48 PM 50.7°F10.4°C 48.6°F9.2°C 92% 2.0 mph WSW3.2 kmh WSW 6.0 mph9.7 kmh 29.38 in994.9 mb 0.00 in0.0 mm 0.00 in0.0 mm 0.06 in1.5 mm
09:48 PM 50.7°F10.4°C 48.2°F9.0°C 91% 3.0 mph WSW4.8 kmh WSW 6.0 mph9.7 kmh 29.37 in994.6 mb 0.00 in0.0 mm 0.00 in0.0 mm 0.06 in1.5 mm
10:48 PM 50.2°F10.1°C 47.8°F8.8°C 92% Calm Calm 2.0 mph3.2 kmh 29.35 in993.9 mb 0.00 in0.0 mm 0.00 in0.0 mm 0.06 in1.5 mm
11:48 PM 49.6°F9.8°C 48.0°F8.9°C 94% 1.0 mph WSW1.6 kmh WSW 3.0 mph4.8 kmh 29.34 in993.6 mb 0.02 in0.5 mm 0.00 in0.0 mm 0.08 in2.0 mm